Time;durP1;ratioP1;P1;durP2;ratioP2;P2;SDS_P1;SDS_P2;PMS_P1;PMS_P2;Temp;Humidity;BMP_temperature;BMP_pressure;BME280_temperature;BME280_humidity;BME280_pressure;Samples;Min_cycle;Max_cycle;Signal;HPM_P1;HPM_P2
2021/03/07 00:00:15;;;;;;;4.25;2.84;;;;;;;18.80;41.36;101478.80;;;;-51
2021/03/07 00:03:15;;;;;;;3.19;2.87;;;;;;;18.77;41.45;101475.95;;;;-51
2021/03/07 00:06:15;;;;;;;3.15;2.74;;;;;;;18.75;41.47;101475.58;;;;-51
2021/03/07 00:09:15;;;;;;;2.95;2.65;;;;;;;18.73;41.40;101473.48;;;;-51
2021/03/07 00:12:15;;;;;;;3.20;2.83;;;;;;;18.71;41.42;101464.50;;;;-51
2021/03/07 00:15:15;;;;;;;3.31;2.70;;;;;;;18.69;41.43;101462.67;;;;-51
2021/03/07 00:18:15;;;;;;;3.19;2.89;;;;;;;18.67;41.35;101465.79;;;;-51
2021/03/07 00:21:15;;;;;;;3.53;2.63;;;;;;;18.64;41.38;101463.05;;;;-51
2021/03/07 00:24:15;;;;;;;3.13;2.62;;;;;;;18.62;41.44;101467.70;;;;-51
2021/03/07 00:27:15;;;;;;;2.89;2.59;;;;;;;18.61;41.36;101467.81;;;;-51
2021/03/07 00:30:15;;;;;;;2.67;2.47;;;;;;;18.59;41.34;101464.03;;;;-51
2021/03/07 00:33:15;;;;;;;2.77;2.54;;;;;;;18.57;41.39;101466.61;;;;-51
2021/03/07 00:36:15;;;;;;;2.84;2.54;;;;;;;18.55;41.42;101466.31;;;;-51
2021/03/07 00:39:15;;;;;;;3.07;2.77;;;;;;;18.53;41.44;101465.77;;;;-51
2021/03/07 00:42:15;;;;;;;3.00;2.70;;;;;;;18.52;41.47;101466.45;;;;-51
2021/03/07 00:45:15;;;;;;;3.33;2.59;;;;;;;18.50;41.41;101471.77;;;;-51
2021/03/07 00:48:15;;;;;;;3.27;2.33;;;;;;;18.47;41.43;101464.63;;;;-51
2021/03/07 00:51:15;;;;;;;2.81;2.51;;;;;;;18.46;41.44;101462.08;;;;-51
2021/03/07 00:54:15;;;;;;;2.95;2.55;;;;;;;18.44;41.52;101459.42;;;;-51
2021/03/07 00:57:15;;;;;;;3.23;2.55;;;;;;;18.43;41.52;101455.56;;;;-51
2021/03/07 01:00:15;;;;;;;2.79;2.59;;;;;;;18.41;41.44;101455.78;;;;-51
2021/03/07 01:03:15;;;;;;;2.55;2.35;;;;;;;18.40;41.43;101451.52;;;;-51
2021/03/07 01:06:15;;;;;;;2.78;2.54;;;;;;;18.38;41.49;101445.71;;;;-51
2021/03/07 01:09:15;;;;;;;2.70;2.50;;;;;;;18.37;41.51;101441.88;;;;-51
2021/03/07 01:12:15;;;;;;;2.73;2.32;;;;;;;18.35;41.41;101436.55;;;;-51
2021/03/07 01:15:15;;;;;;;2.89;2.50;;;;;;;18.33;41.43;101429.68;;;;-51
2021/03/07 01:18:15;;;;;;;2.86;2.61;;;;;;;18.32;41.42;101430.61;;;;-55
2021/03/07 01:21:15;;;;;;;3.43;2.47;;;;;;;18.29;41.48;101425.27;;;;-54
2021/03/07 01:24:15;;;;;;;2.89;2.59;;;;;;;18.27;41.48;101419.87;;;;-54
2021/03/07 01:27:15;;;;;;;2.64;2.39;;;;;;;18.27;41.46;101414.75;;;;-54
2021/03/07 01:30:15;;;;;;;2.47;2.27;;;;;;;18.25;41.49;101408.20;;;;-55
2021/03/07 01:33:15;;;;;;;2.67;2.39;;;;;;;18.23;41.48;101409.20;;;;-54
2021/03/07 01:36:15;;;;;;;2.54;2.34;;;;;;;18.23;41.44;101404.91;;;;-54
2021/03/07 01:39:15;;;;;;;2.50;2.30;;;;;;;18.21;41.42;101395.19;;;;-54
2021/03/07 01:42:15;;;;;;;3.01;2.33;;;;;;;18.20;41.46;101391.17;;;;-55
2021/03/07 01:45:15;;;;;;;2.50;2.30;;;;;;;18.18;41.46;101395.45;;;;-54
2021/03/07 01:48:15;;;;;;;2.83;2.43;;;;;;;18.16;41.57;101388.10;;;;-54
2021/03/07 01:51:15;;;;;;;2.52;2.32;;;;;;;18.15;41.55;101383.76;;;;-55
2021/03/07 01:54:15;;;;;;;2.67;2.46;;;;;;;18.14;41.50;101372.80;;;;-54
2021/03/07 01:57:15;;;;;;;2.42;2.20;;;;;;;18.13;41.44;101368.53;;;;-54
2021/03/07 02:00:15;;;;;;;2.65;2.36;;;;;;;18.11;41.45;101363.45;;;;-55
2021/03/07 02:03:15;;;;;;;2.46;2.26;;;;;;;18.10;41.53;101358.41;;;;-54
2021/03/07 02:06:15;;;;;;;2.69;2.38;;;;;;;18.09;41.44;101354.71;;;;-55
2021/03/07 02:09:14;;;;;;;2.45;2.23;;;;;;;18.08;41.37;101350.16;;;;-55
2021/03/07 02:12:15;;;;;;;2.40;2.20;;;;;;;18.06;41.47;101348.00;;;;-56
2021/03/07 02:15:15;;;;;;;2.86;2.30;;;;;;;18.04;41.52;101342.59;;;;-54
2021/03/07 02:18:15;;;;;;;2.71;2.40;;;;;;;18.04;41.49;101340.08;;;;-54
2021/03/07 02:21:15;;;;;;;2.19;1.99;;;;;;;18.02;41.49;101336.30;;;;-55
2021/03/07 02:24:15;;;;;;;2.58;2.38;;;;;;;18.01;41.49;101336.33;;;;-54
2021/03/07 02:27:15;;;;;;;2.50;2.27;;;;;;;18.00;41.49;101333.23;;;;-55
2021/03/07 02:30:15;;;;;;;2.30;2.10;;;;;;;17.97;41.49;101325.31;;;;-54
2021/03/07 02:33:15;;;;;;;2.37;2.17;;;;;;;17.96;41.43;101318.94;;;;-56
2021/03/07 02:36:15;;;;;;;2.39;2.19;;;;;;;17.95;41.54;101317.95;;;;-54
2021/03/07 02:39:15;;;;;;;2.69;2.15;;;;;;;17.95;41.45;101319.54;;;;-54
2021/03/07 02:42:14;;;;;;;2.78;2.20;;;;;;;17.94;41.51;101313.36;;;;-54
2021/03/07 02:45:15;;;;;;;2.24;2.04;;;;;;;17.93;41.44;101308.30;;;;-54
2021/03/07 02:48:15;;;;;;;2.40;2.20;;;;;;;17.91;41.42;101301.06;;;;-54
2021/03/07 02:51:15;;;;;;;2.14;1.94;;;;;;;17.90;41.51;101298.02;;;;-56
2021/03/07 02:54:15;;;;;;;2.43;2.23;;;;;;;17.89;41.52;101289.16;;;;-54
2021/03/07 02:57:15;;;;;;;2.97;2.09;;;;;;;17.87;41.50;101289.04;;;;-55
2021/03/07 03:00:15;;;;;;;2.39;2.19;;;;;;;17.87;41.46;101288.63;;;;-54
2021/03/07 03:03:15;;;;;;;2.94;2.08;;;;;;;17.86;41.51;101282.50;;;;-55
2021/03/07 03:06:14;;;;;;;2.40;2.20;;;;;;;17.85;41.57;101277.63;;;;-54
2021/03/07 03:09:15;;;;;;;2.37;2.17;;;;;;;17.83;41.46;101280.58;;;;-55
2021/03/07 03:12:15;;;;;;;2.25;2.05;;;;;;;17.82;41.51;101280.34;;;;-54
2021/03/07 03:15:15;;;;;;;2.25;2.05;;;;;;;17.81;41.43;101277.16;;;;-55
2021/03/07 03:18:15;;;;;;;2.17;1.99;;;;;;;17.80;41.50;101278.42;;;;-54
2021/03/07 03:21:15;;;;;;;2.25;2.05;;;;;;;17.79;41.45;101278.57;;;;-56
2021/03/07 03:24:15;;;;;;;2.14;1.94;;;;;;;17.78;41.51;101270.73;;;;-54
2021/03/07 03:27:15;;;;;;;2.35;2.15;;;;;;;17.77;41.40;101273.49;;;;-54
2021/03/07 03:30:14;;;;;;;2.23;2.03;;;;;;;17.76;41.44;101273.29;;;;-56
2021/03/07 03:33:15;;;;;;;2.23;2.03;;;;;;;17.75;41.43;101276.03;;;;-55
2021/03/07 03:36:15;;;;;;;2.29;2.09;;;;;;;17.74;41.44;101275.98;;;;-54
2021/03/07 03:39:15;;;;;;;2.25;2.05;;;;;;;17.73;41.55;101271.92;;;;-55
2021/03/07 03:42:15;;;;;;;2.43;2.23;;;;;;;17.72;41.47;101267.02;;;;-56
2021/03/07 03:45:15;;;;;;;2.39;2.19;;;;;;;17.71;41.48;101264.08;;;;-54
2021/03/07 03:48:15;;;;;;;2.22;2.02;;;;;;;17.70;41.47;101268.34;;;;-54
2021/03/07 03:51:15;;;;;;;2.18;1.98;;;;;;;17.69;41.46;101269.38;;;;-55
2021/03/07 03:54:14;;;;;;;2.22;2.00;;;;;;;17.67;41.52;101268.03;;;;-55
2021/03/07 03:57:15;;;;;;;2.11;1.95;;;;;;;17.67;41.47;101267.45;;;;-55
2021/03/07 04:00:15;;;;;;;2.29;1.99;;;;;;;17.66;41.47;101264.13;;;;-55
2021/03/07 04:03:14;;;;;;;2.09;1.89;;;;;;;17.65;41.50;101264.57;;;;-55
2021/03/07 04:06:15;;;;;;;2.21;2.01;;;;;;;17.64;41.48;101255.23;;;;-54
2021/03/07 04:09:15;;;;;;;2.00;1.85;;;;;;;17.63;41.50;101254.87;;;;-54
2021/03/07 04:12:14;;;;;;;2.33;2.13;;;;;;;17.62;41.52;101256.28;;;;-55
2021/03/07 04:15:15;;;;;;;2.25;2.05;;;;;;;17.62;41.45;101258.23;;;;-54
2021/03/07 04:18:14;;;;;;;2.10;1.90;;;;;;;17.61;41.44;101260.81;;;;-54
2021/03/07 04:21:15;;;;;;;2.11;1.91;;;;;;;17.60;41.47;101259.95;;;;-54
2021/03/07 04:24:15;;;;;;;2.15;1.96;;;;;;;17.58;41.54;101256.55;;;;-55
2021/03/07 04:27:15;;;;;;;1.99;1.81;;;;;;;17.57;41.49;101257.14;;;;-54
2021/03/07 04:30:15;;;;;;;2.16;1.97;;;;;;;17.56;41.46;101258.98;;;;-54
2021/03/07 04:33:15;;;;;;;2.15;1.95;;;;;;;17.56;41.60;101264.66;;;;-54
2021/03/07 04:36:15;;;;;;;2.13;1.93;;;;;;;17.54;41.51;101260.08;;;;-55
2021/03/07 04:39:15;;;;;;;2.22;2.02;;;;;;;17.53;41.42;101257.43;;;;-55
2021/03/07 04:42:15;;;;;;;2.39;1.98;;;;;;;17.53;41.46;101257.84;;;;-54
2021/03/07 04:45:15;;;;;;;1.85;1.75;;;;;;;17.51;41.41;101258.92;;;;-55
2021/03/07 04:48:15;;;;;;;2.29;2.09;;;;;;;17.51;41.45;101256.08;;;;-54
2021/03/07 04:51:14;;;;;;;2.20;2.00;;;;;;;17.50;41.48;101253.72;;;;-55
2021/03/07 04:54:14;;;;;;;2.06;1.90;;;;;;;17.49;41.41;101251.48;;;;-54
2021/03/07 04:57:15;;;;;;;2.02;1.92;;;;;;;17.48;41.42;101250.34;;;;-54
2021/03/07 05:00:14;;;;;;;2.27;2.07;;;;;;;17.47;41.43;101250.41;;;;-54
2021/03/07 05:03:15;;;;;;;2.21;2.01;;;;;;;17.45;41.36;101248.02;;;;-56
2021/03/07 05:06:15;;;;;;;1.99;1.81;;;;;;;17.46;41.43;101246.16;;;;-54
2021/03/07 05:09:14;;;;;;;2.11;1.91;;;;;;;17.44;41.45;101244.23;;;;-55
2021/03/07 05:12:15;;;;;;;1.92;1.77;;;;;;;17.43;41.43;101245.65;;;;-55
2021/03/07 05:15:14;;;;;;;2.29;2.01;;;;;;;17.42;41.41;101245.16;;;;-55
2021/03/07 05:18:15;;;;;;;2.03;1.89;;;;;;;17.42;41.41;101246.05;;;;-51
2021/03/07 05:21:15;;;;;;;2.14;1.94;;;;;;;17.41;41.40;101243.41;;;;-51
2021/03/07 05:24:14;;;;;;;2.29;2.09;;;;;;;17.40;41.40;101242.27;;;;-51
2021/03/07 05:27:15;;;;;;;2.28;2.08;;;;;;;17.39;41.45;101242.45;;;;-51
2021/03/07 05:30:15;;;;;;;1.90;1.79;;;;;;;17.38;41.40;101241.88;;;;-51
2021/03/07 05:33:16;;;;;;;2.18;1.96;;;;;;;17.38;41.48;101242.45;;;;-51
2021/03/07 05:36:15;;;;;;;2.15;1.89;;;;;;;17.37;41.43;101238.14;;;;-51
2021/03/07 05:39:14;;;;;;;1.99;1.81;;;;;;;17.35;41.44;101234.12;;;;-51
2021/03/07 05:42:14;;;;;;;2.19;1.99;;;;;;;17.33;41.35;101233.25;;;;-51
2021/03/07 05:45:15;;;;;;;1.99;1.89;;;;;;;17.35;41.46;101233.27;;;;-51
2021/03/07 05:48:14;;;;;;;1.87;1.77;;;;;;;17.32;41.40;101227.13;;;;-51
2021/03/07 05:51:15;;;;;;;1.91;1.80;;;;;;;17.31;41.39;101225.09;;;;-51
2021/03/07 05:54:15;;;;;;;2.10;1.90;;;;;;;17.31;41.34;101228.09;;;;-51
2021/03/07 05:57:14;;;;;;;2.15;1.95;;;;;;;17.30;41.35;101227.55;;;;-51
2021/03/07 06:00:15;;;;;;;2.20;2.00;;;;;;;17.29;41.36;101231.68;;;;-51
2021/03/07 06:03:15;;;;;;;4.82;3.17;;;;;;;17.10;35.23;101232.94;;;;-50
2021/03/07 06:06:15;;;;;;;5.15;3.20;;;;;;;16.55;35.08;101239.51;;;;-50
2021/03/07 06:09:15;;;;;;;4.69;3.27;;;;;;;16.51;35.25;101241.42;;;;-50
2021/03/07 06:12:14;;;;;;;3.67;3.36;;;;;;;16.41;34.64;101238.83;;;;-50
2021/03/07 06:15:15;;;;;;;3.97;3.50;;;;;;;16.30;34.40;101231.13;;;;-49
2021/03/07 06:18:14;;;;;;;4.02;3.23;;;;;;;16.43;35.60;101231.28;;;;-54
2021/03/07 06:21:14;;;;;;;3.89;3.22;;;;;;;16.51;36.56;101232.84;;;;-54
2021/03/07 06:24:15;;;;;;;3.48;2.97;;;;;;;16.57;36.96;101226.39;;;;-54
2021/03/07 06:27:17;;;;;;;6.17;3.05;;;;;;;16.62;37.18;101226.13;;;;-54
2021/03/07 06:30:16;;;;;;;2.89;2.59;;;;;;;16.66;37.55;101231.14;;;;-54
2021/03/07 06:33:15;;;;;;;3.49;2.87;;;;;;;16.70;37.95;101229.20;;;;-54
2021/03/07 06:36:14;;;;;;;3.19;2.78;;;;;;;16.71;38.02;101226.17;;;;-54
2021/03/07 06:39:15;;;;;;;3.27;2.95;;;;;;;16.73;38.27;101224.04;;;;-54
2021/03/07 06:42:14;;;;;;;2.95;2.64;;;;;;;16.72;38.36;101224.41;;;;-54
2021/03/07 06:45:14;;;;;;;2.87;2.57;;;;;;;16.74;38.52;101224.05;;;;-54
2021/03/07 06:48:15;;;;;;;2.95;2.65;;;;;;;16.73;38.65;101219.28;;;;-54
2021/03/07 06:51:14;;;;;;;2.71;2.38;;;;;;;16.73;38.73;101221.95;;;;-55
2021/03/07 06:54:15;;;;;;;2.77;2.49;;;;;;;16.73;38.88;101221.78;;;;-54
2021/03/07 06:57:15;;;;;;;3.25;2.65;;;;;;;16.73;39.00;101219.02;;;;-53
2021/03/07 07:00:15;;;;;;;2.94;2.69;;;;;;;16.71;39.07;101215.17;;;;-54
2021/03/07 07:03:15;;;;;;;3.44;2.51;;;;;;;16.72;39.20;101208.88;;;;-54
2021/03/07 07:06:14;;;;;;;3.79;2.74;;;;;;;16.72;39.24;101210.49;;;;-54
2021/03/07 07:09:14;;;;;;;2.77;2.49;;;;;;;16.73;39.42;101210.20;;;;-54
2021/03/07 07:12:15;;;;;;;3.01;2.49;;;;;;;16.74;39.47;101211.03;;;;-54
2021/03/07 07:15:14;;;;;;;3.50;2.37;;;;;;;16.78;39.51;101208.41;;;;-54
2021/03/07 07:18:14;;;;;;;3.16;2.47;;;;;;;16.81;39.55;101205.53;;;;-54
2021/03/07 07:21:15;;;;;;;2.56;2.36;;;;;;;16.84;39.72;101205.12;;;;-54
2021/03/07 07:24:14;;;;;;;2.50;2.29;;;;;;;16.88;39.86;101201.03;;;;-54
2021/03/07 07:27:15;;;;;;;2.37;2.13;;;;;;;16.91;40.00;101196.20;;;;-54
2021/03/07 07:30:14;;;;;;;2.56;2.36;;;;;;;16.96;39.95;101202.97;;;;-54
2021/03/07 07:33:14;;;;;;;2.45;2.20;;;;;;;17.02;40.00;101205.66;;;;-48
2021/03/07 07:36:15;;;;;;;2.46;2.19;;;;;;;17.07;40.10;101204.97;;;;-48
2021/03/07 07:39:14;;;;;;;2.46;2.21;;;;;;;17.13;40.21;101208.55;;;;-48
2021/03/07 07:42:14;;;;;;;3.25;2.09;;;;;;;17.19;40.29;101210.58;;;;-48
2021/03/07 07:45:15;;;;;;;2.51;2.31;;;;;;;17.26;40.40;101205.49;;;;-48
2021/03/07 07:48:14;;;;;;;3.11;2.02;;;;;;;17.32;40.41;101206.55;;;;-48
2021/03/07 07:51:14;;;;;;;2.40;1.97;;;;;;;17.35;40.43;101202.44;;;;-48
2021/03/07 07:54:14;;;;;;;2.22;2.02;;;;;;;17.40;40.53;101209.20;;;;-48
2021/03/07 07:57:14;;;;;;;2.26;2.02;;;;;;;17.45;40.51;101210.00;;;;-51
2021/03/07 08:00:15;;;;;;;2.23;2.03;;;;;;;17.49;40.72;101212.34;;;;-52
2021/03/07 08:03:14;;;;;;;2.20;2.00;;;;;;;17.53;40.62;101214.16;;;;-48
2021/03/07 08:06:15;;;;;;;2.53;2.33;;;;;;;17.55;40.68;101214.61;;;;-55
2021/03/07 08:09:14;;;;;;;2.84;2.20;;;;;;;17.58;40.73;101213.09;;;;-56
2021/03/07 08:12:14;;;;;;;2.29;2.09;;;;;;;17.60;40.58;101213.22;;;;-57
2021/03/07 08:15:14;;;;;;;3.05;2.09;;;;;;;17.61;40.71;101211.95;;;;-56
2021/03/07 08:18:15;;;;;;;2.28;2.08;;;;;;;17.63;40.70;101207.95;;;;-56
2021/03/07 08:21:14;;;;;;;2.13;1.93;;;;;;;17.64;40.65;101208.47;;;;-56
2021/03/07 08:24:14;;;;;;;2.33;2.07;;;;;;;17.65;40.70;101207.42;;;;-54
2021/03/07 08:27:15;;;;;;;3.04;1.92;;;;;;;17.66;40.70;101205.69;;;;-55
2021/03/07 08:30:14;;;;;;;2.44;2.19;;;;;;;17.67;40.66;101208.45;;;;-50
2021/03/07 08:33:14;;;;;;;2.06;1.89;;;;;;;17.68;40.73;101206.06;;;;-50
2021/03/07 08:36:15;;;;;;;2.17;1.97;;;;;;;17.68;40.77;101206.55;;;;-50
2021/03/07 08:39:14;;;;;;;2.54;2.05;;;;;;;17.70;40.73;101203.89;;;;-50
2021/03/07 08:42:15;;;;;;;2.19;1.99;;;;;;;17.70;40.67;101203.48;;;;-50
2021/03/07 08:45:14;;;;;;;2.41;2.07;;;;;;;17.70;40.66;101200.45;;;;-50
2021/03/07 08:48:14;;;;;;;2.17;1.97;;;;;;;17.70;40.68;101194.00;;;;-50
2021/03/07 08:51:15;;;;;;;2.17;1.97;;;;;;;17.70;40.66;101196.23;;;;-50
2021/03/07 08:54:14;;;;;;;2.34;2.14;;;;;;;17.70;40.67;101191.81;;;;-50
2021/03/07 08:57:15;;;;;;;3.69;2.05;;;;;;;17.71;40.76;101189.51;;;;-59
2021/03/07 09:00:14;;;;;;;4.14;2.15;;;;;;;17.73;40.99;101186.88;;;;-63
2021/03/07 09:03:14;;;;;;;3.00;2.01;;;;;;;17.75;41.33;101184.75;;;;-57
2021/03/07 09:06:15;;;;;;;2.06;1.87;;;;;;;17.80;41.40;101181.61;;;;-53
2021/03/07 09:09:15;;;;;;;3.82;2.05;;;;;;;17.85;41.49;101174.41;;;;-53
2021/03/07 09:12:17;;;;;;;2.14;1.95;;;;;;;17.92;41.49;101176.92;;;;-59
2021/03/07 09:15:15;;;;;;;2.11;1.90;;;;;;;18.00;41.67;101175.01;;;;-50
2021/03/07 09:18:14;;;;;;;2.19;1.99;;;;;;;18.06;41.62;101173.20;;;;-52
2021/03/07 09:21:14;;;;;;;2.20;2.00;;;;;;;18.14;41.79;101171.69;;;;-58
2021/03/07 09:24:14;;;;;;;2.09;1.77;;;;;;;18.20;41.99;101167.58;;;;-55
2021/03/07 09:27:14;;;;;;;2.95;2.05;;;;;;;18.26;42.00;101161.80;;;;-51
2021/03/07 09:30:15;;;;;;;2.01;1.90;;;;;;;18.29;41.88;101157.59;;;;-48
2021/03/07 09:33:14;;;;;;;2.06;1.85;;;;;;;18.35;42.32;101156.83;;;;-59
2021/03/07 09:36:14;;;;;;;2.58;1.93;;;;;;;18.42;42.13;101154.86;;;;-55
2021/03/07 09:39:15;;;;;;;2.17;1.91;;;;;;;18.46;42.11;101151.30;;;;-49
2021/03/07 09:42:14;;;;;;;2.06;1.80;;;;;;;18.51;42.19;101146.92;;;;-51
2021/03/07 09:45:14;;;;;;;2.21;2.01;;;;;;;18.56;42.34;101143.16;;;;-56
2021/03/07 09:48:14;;;;;;;2.13;1.93;;;;;;;18.62;42.28;101138.09;;;;-54
2021/03/07 09:51:15;;;;;;;2.13;1.89;;;;;;;18.66;42.22;101135.73;;;;-51
2021/03/07 09:54:14;;;;;;;2.22;2.02;;;;;;;18.74;42.47;101129.00;;;;-56
2021/03/07 09:57:14;;;;;;;2.00;1.80;;;;;;;18.77;42.24;101128.16;;;;-48
2021/03/07 10:00:14;;;;;;;2.71;1.69;;;;;;;18.78;42.17;101126.81;;;;-60
2021/03/07 10:03:15;;;;;;;2.09;1.89;;;;;;;18.82;42.43;101120.88;;;;-58
2021/03/07 10:06:14;;;;;;;2.19;1.87;;;;;;;18.85;42.10;101118.69;;;;-51
2021/03/07 10:09:14;;;;;;;2.00;1.80;;;;;;;18.90;42.46;101118.20;;;;-54
2021/03/07 10:12:14;;;;;;;2.04;1.71;;;;;;;18.93;42.24;101110.64;;;;-57
2021/03/07 10:15:14;;;;;;;1.97;1.80;;;;;;;18.98;42.52;101112.51;;;;-53
2021/03/07 10:18:16;;;;;;;2.35;1.80;;;;;;;19.03;42.52;101108.72;;;;-55
2021/03/07 10:21:14;;;;;;;1.91;1.81;;;;;;;19.05;42.55;101106.45;;;;-63
2021/03/07 10:24:14;;;;;;;1.95;1.72;;;;;;;19.10;42.45;101107.86;;;;-58
2021/03/07 10:27:15;;;;;;;2.13;1.93;;;;;;;19.12;42.27;101102.62;;;;-61
2021/03/07 10:30:14;;;;;;;2.04;1.80;;;;;;;19.15;42.02;101105.78;;;;-55
2021/03/07 10:33:15;;;;;;;2.18;1.83;;;;;;;19.15;41.73;101103.88;;;;-55
2021/03/07 10:36:16;;;;;;;3.40;1.79;;;;;;;19.15;41.74;101100.73;;;;-53
2021/03/07 10:39:15;;;;;;;1.83;1.73;;;;;;;19.17;41.60;101098.98;;;;-53
2021/03/07 10:42:14;;;;;;;1.94;1.80;;;;;;;19.18;41.48;101091.59;;;;-54
2021/03/07 10:45:14;;;;;;;1.70;1.60;;;;;;;19.19;41.42;101088.43;;;;-53
2021/03/07 10:48:15;;;;;;;1.87;1.70;;;;;;;19.19;41.35;101084.94;;;;-55
2021/03/07 10:51:14;;;;;;;2.62;1.69;;;;;;;19.20;41.42;101087.81;;;;-55
2021/03/07 10:54:14;;;;;;;1.79;1.69;;;;;;;19.22;41.37;101084.20;;;;-54
2021/03/07 10:57:14;;;;;;;1.80;1.70;;;;;;;19.23;41.27;101084.60;;;;-55
2021/03/07 11:00:14;;;;;;;2.23;1.79;;;;;;;19.23;41.22;101084.60;;;;-55
2021/03/07 11:03:14;;;;;;;1.79;1.69;;;;;;;19.23;41.21;101082.48;;;;-54
2021/03/07 11:06:15;;;;;;;1.89;1.77;;;;;;;19.25;41.15;101081.88;;;;-55
2021/03/07 11:09:15;;;;;;;1.70;1.60;;;;;;;19.26;41.11;101077.48;;;;-54
2021/03/07 11:12:14;;;;;;;1.73;1.63;;;;;;;19.26;41.06;101069.97;;;;-55
2021/03/07 11:15:15;;;;;;;1.76;1.63;;;;;;;19.27;41.01;101071.75;;;;-55
2021/03/07 11:18:14;;;;;;;1.60;1.50;;;;;;;19.26;41.04;101066.47;;;;-55
2021/03/07 11:21:15;;;;;;;1.71;1.61;;;;;;;19.27;41.04;101064.69;;;;-55
2021/03/07 11:24:14;;;;;;;1.78;1.68;;;;;;;19.28;41.05;101059.32;;;;-55
2021/03/07 11:27:14;;;;;;;1.69;1.59;;;;;;;19.28;40.98;101052.77;;;;-55
2021/03/07 11:30:14;;;;;;;1.71;1.61;;;;;;;19.28;40.93;101046.92;;;;-54
2021/03/07 11:33:14;;;;;;;1.70;1.60;;;;;;;19.28;41.01;101041.88;;;;-54
2021/03/07 11:36:14;;;;;;;1.83;1.70;;;;;;;19.29;40.99;101035.78;;;;-54
2021/03/07 11:39:15;;;;;;;2.14;1.67;;;;;;;19.30;40.90;101031.75;;;;-54
2021/03/07 11:42:14;;;;;;;1.64;1.54;;;;;;;19.33;40.87;101030.41;;;;-54
2021/03/07 11:45:14;;;;;;;1.81;1.71;;;;;;;19.34;40.83;101028.78;;;;-54
2021/03/07 11:48:14;;;;;;;1.78;1.68;;;;;;;19.33;40.90;101030.81;;;;-54
2021/03/07 11:51:14;;;;;;;1.60;1.50;;;;;;;19.34;40.80;101026.19;;;;-55
2021/03/07 11:54:14;;;;;;;1.64;1.54;;;;;;;19.33;40.88;101020.58;;;;-55
2021/03/07 11:57:14;;;;;;;1.73;1.62;;;;;;;19.35;40.83;101017.11;;;;-54
2021/03/07 12:00:14;;;;;;;1.62;1.51;;;;;;;19.34;40.89;101010.98;;;;-53
2021/03/07 12:03:15;;;;;;;1.70;1.60;;;;;;;19.35;40.93;101002.41;;;;-54
2021/03/07 12:06:14;;;;;;;1.57;1.46;;;;;;;19.36;40.86;100995.44;;;;-55
2021/03/07 12:09:14;;;;;;;1.60;1.50;;;;;;;19.36;40.95;100987.88;;;;-54
2021/03/07 12:12:14;;;;;;;1.75;1.54;;;;;;;19.38;40.91;100988.08;;;;-53
2021/03/07 12:15:14;;;;;;;1.63;1.53;;;;;;;19.40;40.86;100979.70;;;;-53
2021/03/07 12:18:14;;;;;;;1.70;1.60;;;;;;;19.41;40.97;100973.73;;;;-54
2021/03/07 12:21:15;;;;;;;1.58;1.48;;;;;;;19.43;40.92;100972.37;;;;-54
2021/03/07 12:24:14;;;;;;;1.69;1.59;;;;;;;19.43;40.92;100962.21;;;;-53
2021/03/07 12:27:15;;;;;;;1.60;1.50;;;;;;;19.45;40.90;100955.41;;;;-54
2021/03/07 12:30:14;;;;;;;1.71;1.61;;;;;;;19.45;40.91;100951.11;;;;-54
2021/03/07 12:33:14;;;;;;;1.84;1.50;;;;;;;19.46;40.89;100945.66;;;;-55
2021/03/07 12:36:14;;;;;;;1.61;1.51;;;;;;;19.47;40.90;100940.89;;;;-61
2021/03/07 12:39:14;;;;;;;2.79;1.73;;;;;;;19.48;41.00;100930.16;;;;-59
2021/03/07 12:42:14;;;;;;;2.01;1.80;;;;;;;19.50;40.79;100921.82;;;;-61
2021/03/07 12:45:14;;;;;;;3.08;1.70;;;;;;;19.49;40.28;100924.02;;;;-59
2021/03/07 12:48:14;;;;;;;1.99;1.76;;;;;;;19.50;39.62;100919.05;;;;-56
2021/03/07 12:51:14;;;;;;;2.00;1.80;;;;;;;19.52;40.05;100917.30;;;;-51
2021/03/07 12:54:14;;;;;;;2.15;1.93;;;;;;;19.54;40.02;100913.42;;;;-52
2021/03/07 12:57:14;;;;;;;2.13;1.93;;;;;;;19.58;39.97;100907.95;;;;-53
2021/03/07 13:00:14;;;;;;;2.43;2.00;;;;;;;19.60;39.79;100903.99;;;;-52
2021/03/07 13:03:14;;;;;;;2.18;1.73;;;;;;;19.65;39.98;100903.91;;;;-53
2021/03/07 13:06:14;;;;;;;4.57;1.77;;;;;;;19.70;39.85;100895.42;;;;-53
2021/03/07 13:09:14;;;;;;;2.63;1.75;;;;;;;19.71;39.83;100889.68;;;;-53
2021/03/07 13:12:14;;;;;;;2.11;1.90;;;;;;;19.72;39.93;100883.84;;;;-53
2021/03/07 13:15:15;;;;;;;2.35;1.77;;;;;;;19.74;39.92;100877.45;;;;-53
2021/03/07 13:18:14;;;;;;;1.97;1.76;;;;;;;19.74;40.07;100878.18;;;;-51
2021/03/07 13:21:15;;;;;;;2.85;1.73;;;;;;;19.77;40.32;100875.03;;;;-51
2021/03/07 13:24:14;;;;;;;1.87;1.67;;;;;;;19.82;40.04;100874.78;;;;-51
2021/03/07 13:27:14;;;;;;;2.52;1.71;;;;;;;19.80;40.01;100871.10;;;;-51
2021/03/07 13:30:14;;;;;;;2.60;1.86;;;;;;;19.80;40.13;100868.50;;;;-51
2021/03/07 13:33:14;;;;;;;2.83;1.77;;;;;;;19.82;40.20;100864.62;;;;-57
2021/03/07 13:36:15;;;;;;;2.29;1.85;;;;;;;19.81;40.07;100860.52;;;;-57
2021/03/07 13:39:14;;;;;;;2.91;1.87;;;;;;;19.78;39.92;100852.70;;;;-62
2021/03/07 13:42:14;;;;;;;12.83;2.07;;;;;;;19.75;39.99;100847.69;;;;-51
2021/03/07 13:45:15;;;;;;;3.00;1.81;;;;;;;19.77;40.14;100847.30;;;;-52
2021/03/07 13:48:14;;;;;;;2.53;1.80;;;;;;;19.78;40.31;100840.66;;;;-53
2021/03/07 13:51:14;;;;;;;3.49;1.75;;;;;;;19.81;40.41;100834.25;;;;-53
2021/03/07 13:54:14;;;;;;;2.39;1.79;;;;;;;19.83;40.53;100831.02;;;;-52
2021/03/07 13:57:14;;;;;;;2.15;1.60;;;;;;;19.84;40.36;100833.00;;;;-55
2021/03/07 14:00:14;;;;;;;3.05;1.80;;;;;;;19.84;40.32;100834.06;;;;-56
2021/03/07 14:03:14;;;;;;;2.72;1.75;;;;;;;19.85;40.25;100830.96;;;;-55
2021/03/07 14:06:14;;;;;;;3.52;1.61;;;;;;;19.86;40.28;100825.52;;;;-54
2021/03/07 14:09:14;;;;;;;2.79;1.73;;;;;;;19.88;40.24;100821.95;;;;-55
2021/03/07 14:12:14;;;;;;;1.93;1.70;;;;;;;19.89;40.24;100825.39;;;;-55
2021/03/07 14:15:14;;;;;;;2.45;1.60;;;;;;;19.91;40.30;100823.70;;;;-56
2021/03/07 14:18:14;;;;;;;2.10;1.59;;;;;;;19.91;40.31;100821.59;;;;-54
2021/03/07 14:21:14;;;;;;;3.53;1.61;;;;;;;19.92;40.33;100817.80;;;;-55
2021/03/07 14:24:14;;;;;;;2.16;1.65;;;;;;;19.94;40.34;100817.00;;;;-55
2021/03/07 14:27:14;;;;;;;1.71;1.58;;;;;;;19.97;40.25;100816.37;;;;-55
2021/03/07 14:30:15;;;;;;;3.47;1.67;;;;;;;19.97;40.27;100812.80;;;;-54
2021/03/07 14:33:14;;;;;;;2.60;1.58;;;;;;;19.99;40.31;100806.22;;;;-56
2021/03/07 14:36:14;;;;;;;2.86;1.76;;;;;;;20.00;40.33;100803.70;;;;-54
2021/03/07 14:39:14;;;;;;;2.17;1.52;;;;;;;20.02;40.32;100807.14;;;;-55
2021/03/07 14:42:14;;;;;;;2.19;1.57;;;;;;;20.02;40.34;100801.61;;;;-54
2021/03/07 14:45:14;;;;;;;1.61;1.51;;;;;;;20.03;40.30;100798.29;;;;-55
2021/03/07 14:48:14;;;;;;;1.81;1.64;;;;;;;20.04;40.36;100794.38;;;;-55
2021/03/07 14:51:14;;;;;;;1.92;1.50;;;;;;;20.04;40.38;100791.12;;;;-55
2021/03/07 14:54:14;;;;;;;1.63;1.53;;;;;;;20.03;40.36;100786.58;;;;-54
2021/03/07 14:57:14;;;;;;;2.35;1.50;;;;;;;20.05;40.44;100786.11;;;;-55
2021/03/07 15:00:14;;;;;;;2.13;1.68;;;;;;;20.05;40.35;100780.58;;;;-55
2021/03/07 15:03:14;;;;;;;2.03;1.52;;;;;;;20.08;40.38;100777.25;;;;-54
2021/03/07 15:06:14;;;;;;;1.79;1.50;;;;;;;20.08;40.45;100776.11;;;;-56
2021/03/07 15:09:14;;;;;;;1.59;1.49;;;;;;;20.08;40.41;100768.39;;;;-55
2021/03/07 15:12:29;;;;;;;1.75;1.65;;;;;;;20.10;40.35;100766.20;;;;-51
2021/03/07 15:15:15;;;;;;;2.15;1.45;;;;;;;20.10;40.39;100761.33;;;;-54
2021/03/07 15:18:14;;;;;;;2.23;1.52;;;;;;;20.12;40.61;100754.59;;;;-50
2021/03/07 15:21:14;;;;;;;1.70;1.60;;;;;;;20.15;40.74;100753.46;;;;-55
2021/03/07 15:24:14;;;;;;;1.65;1.55;;;;;;;20.15;40.98;100745.56;;;;-60
2021/03/07 15:27:14;;;;;;;2.00;1.54;;;;;;;20.12;40.92;100744.34;;;;-49
2021/03/07 15:30:14;;;;;;;1.89;1.45;;;;;;;20.13;41.01;100741.27;;;;-60
2021/03/07 15:33:14;;;;;;;1.81;1.59;;;;;;;20.13;41.01;100738.72;;;;-52
2021/03/07 15:36:15;;;;;;;1.74;1.64;;;;;;;20.12;41.17;100732.86;;;;-51
2021/03/07 15:39:14;;;;;;;2.13;1.56;;;;;;;20.13;41.22;100729.52;;;;-53
2021/03/07 15:42:14;;;;;;;1.61;1.49;;;;;;;20.14;41.25;100727.52;;;;-52
2021/03/07 15:45:14;;;;;;;2.29;1.49;;;;;;;20.13;41.19;100723.37;;;;-56
2021/03/07 15:48:14;;;;;;;1.65;1.53;;;;;;;20.16;41.35;100723.62;;;;-59
2021/03/07 15:51:14;;;;;;;1.65;1.55;;;;;;;20.17;41.27;100723.07;;;;-59
2021/03/07 15:54:14;;;;;;;1.67;1.57;;;;;;;20.20;41.18;100718.69;;;;-57
2021/03/07 15:57:14;;;;;;;2.17;1.58;;;;;;;20.21;41.18;100717.78;;;;-60
2021/03/07 16:00:14;;;;;;;1.75;1.49;;;;;;;20.23;41.15;100719.11;;;;-58
2021/03/07 16:03:14;;;;;;;1.67;1.40;;;;;;;20.22;41.09;100711.22;;;;-47
2021/03/07 16:06:14;;;;;;;1.70;1.49;;;;;;;20.28;41.09;100709.80;;;;-56
2021/03/07 16:09:14;;;;;;;2.08;1.60;;;;;;;20.29;41.12;100706.05;;;;-52
2021/03/07 16:12:14;;;;;;;1.57;1.47;;;;;;;20.32;40.95;100703.31;;;;-53
2021/03/07 16:15:14;;;;;;;1.56;1.46;;;;;;;20.32;41.10;100699.17;;;;-55
2021/03/07 16:18:14;;;;;;;2.39;1.53;;;;;;;20.34;41.09;100699.27;;;;-56
2021/03/07 16:21:14;;;;;;;1.50;1.40;;;;;;;20.37;41.09;100693.90;;;;-62
2021/03/07 16:24:14;;;;;;;1.63;1.53;;;;;;;20.37;41.15;100694.55;;;;-63
2021/03/07 16:27:14;;;;;;;1.69;1.49;;;;;;;20.38;41.17;100690.41;;;;-61
2021/03/07 16:30:14;;;;;;;1.65;1.51;;;;;;;20.39;41.06;100694.23;;;;-49
2021/03/07 16:33:14;;;;;;;1.63;1.53;;;;;;;20.44;41.14;100691.08;;;;-50
2021/03/07 16:36:14;;;;;;;1.63;1.49;;;;;;;20.43;41.05;100692.80;;;;-54
2021/03/07 16:39:14;;;;;;;1.69;1.50;;;;;;;20.46;41.10;100696.58;;;;-51
2021/03/07 16:42:14;;;;;;;2.47;1.75;;;;;;;20.48;41.04;100693.00;;;;-51